Time;durP1;ratioP1;P1;durP2;ratioP2;P2;SDS_P1;SDS_P2;PMS_P1;PMS_P2;Temp;Humidity;BMP_temperature;BMP_pressure;BME280_temperature;BME280_humidity;BME280_pressure;Samples;Min_cycle;Max_cycle;Signal;HPM_P1;HPM_P2
2022/09/04 00:02:37;;;;;;;5.10;2.13;;;;;;;;;;6158359;23;20349;-76
2022/09/04 00:05:14;;;;;;;3.83;2.17;;;;;;;;;;6158342;23;20020;-76
2022/09/04 00:07:45;;;;;;;7.50;2.25;;;;;;;;;;6133436;23;20373;-77
2022/09/04 00:10:20;;;;;;;3.20;1.98;;;;;;;;;;6158656;23;20088;-77
2022/09/04 00:12:48;;;;;;;4.00;2.28;;;;;;;;;;6158207;23;20013;-76
2022/09/04 00:15:16;;;;;;;2.92;1.70;;;;;;;;;;6184637;23;20012;-76
2022/09/04 00:17:59;;;;;;;2.60;1.55;;;;;;;;;;6133639;23;20009;-77
2022/09/04 00:20:29;;;;;;;4.70;2.15;;;;;;;;;;6158531;23;20083;-77
2022/09/04 00:22:57;;;;;;;5.25;2.45;;;;;;;;;;6158783;23;20017;-76
2022/09/04 00:25:26;;;;;;;4.30;1.95;;;;;;;;;;6184273;23;20001;-76
2022/09/04 00:27:53;;;;;;;4.47;2.10;;;;;;;;;;6158313;23;20013;-76
2022/09/04 00:30:19;;;;;;;5.35;1.90;;;;;;;;;;6158269;23;20091;-76
2022/09/04 00:33:04;;;;;;;4.95;2.30;;;;;;;;;;6158037;23;20013;-76
2022/09/04 00:35:30;;;;;;;5.45;2.05;;;;;;;;;;6133634;23;20019;-76
2022/09/04 00:37:56;;;;;;;4.85;2.20;;;;;;;;;;6133378;23;20001;-77
2022/09/04 00:40:21;;;;;;;8.38;2.53;;;;;;;;;;6157971;23;20013;-75
2022/09/04 00:42:56;;;;;;;7.70;2.38;;;;;;;;;;6158121;23;20000;-75
2022/09/04 00:45:26;;;;;;;6.32;2.63;;;;;;;;;;6184315;23;20013;-75
2022/09/04 00:48:01;;;;;;;4.68;2.20;;;;;;;;;;6134169;23;20345;-75
2022/09/04 00:50:39;;;;;;;5.60;2.20;;;;;;;;;;6159640;23;20020;-75
2022/09/04 00:53:24;;;;;;;6.32;2.45;;;;;;;;;;6159800;23;20730;-76
2022/09/04 00:55:56;;;;;;;7.82;2.38;;;;;;;;;;6159825;23;20009;-76
2022/09/04 00:58:41;;;;;;;5.07;2.40;;;;;;;;;;6186155;23;20017;-76
2022/09/04 01:01:06;;;;;;;5.93;2.60;;;;;;;;;;6135775;23;20021;-76
2022/09/04 01:03:44;;;;;;;6.60;2.35;;;;;;;;;;6159672;23;20441;-76
2022/09/04 01:06:09;;;;;;;7.35;2.47;;;;;;;;;;6159751;23;20017;-75
2022/09/04 01:08:39;;;;;;;5.15;2.05;;;;;;;;;;6186385;23;20433;-75
2022/09/04 01:11:05;;;;;;;6.15;2.10;;;;;;;;;;6159876;23;20020;-77
2022/09/04 01:13:35;;;;;;;4.43;2.08;;;;;;;;;;6186283;23;20007;-75
2022/09/04 01:16:04;;;;;;;4.95;2.20;;;;;;;;;;6135805;23;20108;-76
2022/09/04 01:18:31;;;;;;;4.95;2.33;;;;;;;;;;6135685;23;19997;-76
2022/09/04 01:21:06;;;;;;;3.60;2.00;;;;;;;;;;6160173;23;20009;-74
2022/09/04 01:23:40;;;;;;;2.92;1.88;;;;;;;;;;6159925;23;20017;-77
2022/09/04 01:26:10;;;;;;;4.20;2.20;;;;;;;;;;6159973;23;20088;-77
2022/09/04 01:28:41;;;;;;;4.18;2.20;;;;;;;;;;6135403;23;20001;-76
2022/09/04 01:31:07;;;;;;;4.70;2.30;;;;;;;;;;6160084;23;20460;-76
2022/09/04 01:33:32;;;;;;;3.97;1.90;;;;;;;;;;6184629;23;20001;-76
2022/09/04 01:36:07;;;;;;;3.65;1.92;;;;;;;;;;6185895;23;20062;-76
2022/09/04 01:38:37;;;;;;;3.92;2.00;;;;;;;;;;6158845;23;20092;-76
2022/09/04 01:41:14;;;;;;;3.90;1.92;;;;;;;;;;6134940;23;20017;-75
2022/09/04 01:43:39;;;;;;;5.00;2.30;;;;;;;;;;6185948;23;20036;-76
2022/09/04 01:46:05;;;;;;;;;;;;;;;;;;6135486;23;20008;-75
2022/09/04 01:48:30;;;;;;;5.28;2.10;;;;;;;;;;6185970;23;19908;-76
2022/09/04 01:50:56;;;;;;;;;;;;;;;;;;6159997;23;20044;-76
2022/09/04 01:53:24;;;;;;;5.60;2.28;;;;;;;;;;6185735;23;19908;-76
2022/09/04 01:55:54;;;;;;;5.50;2.33;;;;;;;;;;6158861;23;19997;-76
2022/09/04 01:58:19;;;;;;;4.35;2.47;;;;;;;;;;6134887;23;20020;-76
2022/09/04 02:00:45;;;;;;;;;;;;;;;;;;6159620;23;20452;-76
2022/09/04 02:03:25;;;;;;;5.15;2.33;;;;;;;;;;6185802;23;19920;-76
2022/09/04 02:06:01;;;;;;;5.22;2.30;;;;;;;;;;6159461;23;20044;-75
2022/09/04 02:08:34;;;;;;;5.78;2.10;;;;;;;;;;6159414;23;20016;-75
2022/09/04 02:11:00;;;;;;;4.22;2.20;;;;;;;;;;6134964;23;20020;-74
2022/09/04 02:13:28;;;;;;;;;;;;;;;;;;6160268;23;20012;-75
2022/09/04 02:16:05;;;;;;;7.28;2.10;;;;;;;;;;6185696;23;20287;-76
2022/09/04 02:18:44;;;;;;;4.05;2.13;;;;;;;;;;6159244;23;20009;-75
2022/09/04 02:21:22;;;;;;;4.07;1.90;;;;;;;;;;6134974;23;20035;-76
2022/09/04 02:23:50;;;;;;;5.43;2.00;;;;;;;;;;6185519;23;20009;-76
2022/09/04 02:26:19;;;;;;;7.53;3.92;;;;;;;;;;6183781;23;20004;-75
2022/09/04 02:29:03;;;;;;;4.78;2.45;;;;;;;;;;6185423;23;20515;-76
2022/09/04 02:31:36;;;;;;;4.85;2.53;;;;;;;;;;6159255;23;20017;-76
2022/09/04 02:34:07;;;;;;;6.30;2.20;;;;;;;;;;6159707;23;20326;-76
2022/09/04 02:36:33;;;;;;;6.13;2.28;;;;;;;;;;6159260;23;20847;-76
2022/09/04 02:38:58;;;;;;;;;;;;;;;;;;6159635;23;20071;-76
2022/09/04 02:41:37;;;;;;;6.40;2.20;;;;;;;;;;6185670;23;19954;-76
2022/09/04 02:44:16;;;;;;;4.40;1.98;;;;;;;;;;6159471;23;20020;-76
2022/09/04 02:46:52;;;;;;;5.32;2.00;;;;;;;;;;6159174;23;20020;-76
2022/09/04 02:49:21;;;;;;;7.25;2.63;;;;;;;;;;6134475;23;20067;-76
2022/09/04 02:52:05;;;;;;;4.30;2.30;;;;;;;;;;6159344;23;20443;-76
2022/09/04 02:54:41;;;;;;;6.28;2.03;;;;;;;;;;6185222;23;20009;-77
2022/09/04 02:57:10;;;;;;;6.18;2.28;;;;;;;;;;6134444;23;20024;-76
2022/09/04 02:59:54;;;;;;;4.82;2.13;;;;;;;;;;6185170;23;20100;-76
2022/09/04 03:02:30;;;;;;;7.78;2.28;;;;;;;;;;6185416;23;20013;-76
2022/09/04 03:05:17;;;;;;;4.82;2.13;;;;;;;;;;6158454;23;20017;-76
2022/09/04 03:07:45;;;;;;;5.60;2.17;;;;;;;;;;6134296;23;20227;-76
2022/09/04 03:10:15;;;;;;;5.43;2.20;;;;;;;;;;6158364;23;20009;-76
2022/09/04 03:12:48;;;;;;;4.45;1.92;;;;;;;;;;6158184;23;20009;-76
2022/09/04 03:15:14;;;;;;;3.53;2.25;;;;;;;;;;6134278;23;20013;-76
2022/09/04 03:17:39;;;;;;;;;;;;;;;;;;6185514;23;20004;-76
2022/09/04 03:20:13;;;;;;;5.10;1.65;;;;;;;;;;6184953;23;19912;-76
2022/09/04 03:22:44;;;;;;;3.50;1.83;;;;;;;;;;6134158;23;20013;-76
2022/09/04 03:25:35;;;;;;;3.80;1.88;;;;;;;;;;6158607;23;20223;-76
2022/09/04 03:28:01;;;;;;;4.22;2.33;;;;;;;;;;6150311;23;20349;-76
2022/09/04 03:30:26;;;;;;;;;;;;;;;;;;6159665;23;19997;-75
2022/09/04 03:32:52;;;;;;;3.83;1.90;;;;;;;;;;6184764;23;19915;-76
2022/09/04 03:35:17;;;;;;;;;;;;;;;;;;6159360;23;20000;-76
2022/09/04 03:38:21;;;;;;;3.28;1.77;;;;;;;;;;6184924;23;19944;-76
2022/09/04 03:40:59;;;;;;;4.03;1.75;;;;;;;;;;6070205;23;20065;-75
2022/09/04 03:43:31;;;;;;;3.28;1.60;;;;;;;;;;6070598;23;20097;-74
2022/09/04 03:46:06;;;;;;;2.88;1.45;;;;;;;;;;6098858;23;20307;-76
2022/09/04 03:48:37;;;;;;;3.60;1.65;;;;;;;;;;6158899;23;20016;-75
2022/09/04 03:51:03;;;;;;;3.45;1.60;;;;;;;;;;6184928;23;20028;-75
2022/09/04 03:53:28;;;;;;;;;;;;;;;;;;6158978;23;20429;-75
2022/09/04 03:55:56;;;;;;;3.33;1.50;;;;;;;;;;6184867;23;19993;-75
2022/09/04 03:58:24;;;;;;;4.45;1.83;;;;;;;;;;6158342;23;20021;-75
2022/09/04 04:01:02;;;;;;;3.45;1.85;;;;;;;;;;6158713;23;20023;-75
2022/09/04 04:03:35;;;;;;;2.65;1.50;;;;;;;;;;6158535;23;20076;-75
2022/09/04 04:06:36;;;;;;;2.90;1.70;;;;;;;;;;6134164;23;20009;-76
2022/09/04 04:09:02;;;;;;;2.60;1.40;;;;;;;;;;6093655;23;20022;-76
2022/09/04 04:11:28;;;;;;;;;;;;;;;;;;6164728;23;20023;-76
2022/09/04 04:13:54;;;;;;;3.10;1.70;;;;;;;;;;6184619;23;20271;-75
2022/09/04 04:16:19;;;;;;;;;;;;;;;;;;6184691;23;20027;-76
2022/09/04 04:19:09;;;;;;;2.65;1.30;;;;;;;;;;6184771;23;19962;-76
2022/09/04 04:21:56;;;;;;;2.55;1.40;;;;;;;;;;6158512;23;20445;-76
2022/09/04 04:24:28;;;;;;;1.67;1.15;;;;;;;;;;6184028;23;20020;-76
2022/09/04 04:27:02;;;;;;;2.92;1.50;;;;;;;;;;6184279;23;20020;-75
2022/09/04 04:29:48;;;;;;;3.67;1.67;;;;;;;;;;6133576;23;20087;-77
2022/09/04 04:32:17;;;;;;;4.70;1.52;;;;;;;;;;6133259;23;20066;-77
2022/09/04 04:34:48;;;;;;;3.47;1.50;;;;;;;;;;6184374;23;20004;-75
2022/09/04 04:37:21;;;;;;;3.67;1.92;;;;;;;;;;6184257;23;20020;-76
2022/09/04 04:39:46;;;;;;;2.60;1.50;;;;;;;;;;6157913;23;20496;-76
2022/09/04 04:42:11;;;;;;;;;;;;;;;;;;6158554;23;20060;-76
2022/09/04 04:47:24;;;;;;;4.88;1.70;;;;;;;;;;6184118;23;20020;-76
2022/09/04 04:49:59;;;;;;;5.78;1.60;;;;;;;;;;6184375;23;20451;-77
2022/09/04 04:52:31;;;;;;;4.07;1.50;;;;;;;;;;6158122;23;20009;-75
2022/09/04 04:55:15;;;;;;;2.60;1.27;;;;;;;;;;6157911;23;20005;-75
2022/09/04 04:57:43;;;;;;;2.50;1.63;;;;;;;;;;6158394;23;20507;-75
2022/09/04 05:00:18;;;;;;;2.17;1.45;;;;;;;;;;6158174;23;20019;-75
2022/09/04 05:03:03;;;;;;;3.40;1.70;;;;;;;;;;6159962;23;20424;-76
2022/09/04 05:05:48;;;;;;;4.22;1.40;;;;;;;;;;6158349;23;20028;-76
2022/09/04 05:08:26;;;;;;;3.92;1.73;;;;;;;;;;6184508;23;20016;-76
2022/09/04 05:10:55;;;;;;;3.38;1.63;;;;;;;;;;6158200;23;20016;-76
2022/09/04 05:13:20;;;;;;;3.05;1.60;;;;;;;;;;6158242;23;20059;-77
2022/09/04 05:15:46;;;;;;;;;;;;;;;;;;6184641;23;20372;-76
2022/09/04 05:18:30;;;;;;;3.83;2.25;;;;;;;;;;6184396;23;19911;-76
2022/09/04 05:20:55;;;;;;;3.95;2.30;;;;;;;;;;6184438;23;20021;-78
2022/09/04 05:23:21;;;;;;;;;;;;;;;;;;6183410;23;20079;-75
2022/09/04 05:26:05;;;;;;;3.97;1.95;;;;;;;;;;6184381;23;20295;-76
2022/09/04 05:28:34;;;;;;;3.83;1.98;;;;;;;;;;6158492;23;20013;-75
2022/09/04 05:31:18;;;;;;;4.72;2.22;;;;;;;;;;6184626;23;20345;-76
2022/09/04 05:33:55;;;;;;;3.38;1.90;;;;;;;;;;6184326;23;20017;-75
2022/09/04 05:36:24;;;;;;;2.60;1.73;;;;;;;;;;6159379;23;20009;-76
2022/09/04 05:38:59;;;;;;;3.53;1.83;;;;;;;;;;6135211;23;20001;-76
2022/09/04 05:41:39;;;;;;;4.22;2.20;;;;;;;;;;6135689;23;20009;-76
2022/09/04 05:44:08;;;;;;;3.30;1.83;;;;;;;;;;6159971;23;20013;-75
2022/09/04 05:46:39;;;;;;;3.00;1.52;;;;;;;;;;6159861;23;20005;-76
2022/09/04 05:49:23;;;;;;;3.45;1.60;;;;;;;;;;6160074;23;20009;-75
2022/09/04 05:51:55;;;;;;;2.85;1.60;;;;;;;;;;6159660;23;20013;-75
2022/09/04 05:54:38;;;;;;;5.05;1.60;;;;;;;;;;6160033;23;20013;-76
2022/09/04 05:57:04;;;;;;;3.88;1.50;;;;;;;;;;6185789;23;20023;-76
2022/09/04 05:59:29;;;;;;;;;;;;;;;;;;6187054;23;20464;-76
2022/09/04 06:02:13;;;;;;;3.58;1.30;;;;;;;;;;6186349;23;19915;-77
2022/09/04 06:05:00;;;;;;;3.17;1.52;;;;;;;;;;6185904;23;20318;-76
2022/09/04 06:07:41;;;;;;;1.85;1.30;;;;;;;;;;6186391;23;20013;-75
2022/09/04 06:10:06;;;;;;;2.50;1.02;;;;;;;;;;6134200;23;20013;-76
2022/09/04 06:12:32;;;;;;;;;;;;;;;;;;6159908;23;20007;-76
2022/09/04 06:15:00;;;;;;;2.80;1.00;;;;;;;;;;6184555;23;19955;-76
2022/09/04 06:17:35;;;;;;;2.30;1.08;;;;;;;;;;6184188;23;20005;-76
2022/09/04 06:20:15;;;;;;;2.42;1.10;;;;;;;;;;6185938;23;20410;-77
2022/09/04 06:22:40;;;;;;;2.50;1.20;;;;;;;;;;6185709;23;20092;-75
2022/09/04 06:25:06;;;;;;;;;;;;;;;;;;6186480;23;20028;-75
2022/09/04 06:27:41;;;;;;;1.42;1.05;;;;;;;;;;6184554;23;19958;-77
2022/09/04 06:30:07;;;;;;;2.60;1.20;;;;;;;;;;6159362;23;20349;-76
2022/09/04 06:32:32;;;;;;;;;;;;;;;;;;6187030;23;20184;-77
2022/09/04 06:35:03;;;;;;;3.90;1.30;;;;;;;;;;6185538;23;19908;-77
2022/09/04 06:37:35;;;;;;;2.10;1.20;;;;;;;;;;6135799;23;20096;-76
2022/09/04 06:40:14;;;;;;;3.08;1.20;;;;;;;;;;6159426;23;20431;-76
2022/09/04 06:42:46;;;;;;;2.83;1.80;;;;;;;;;;6135342;23;20400;-75
2022/09/04 06:45:11;;;;;;;3.42;1.70;;;;;;;;;;6185566;23;20353;-76
2022/09/04 06:47:37;;;;;;;;;;;;;;;;;;6185737;23;20007;-76
2022/09/04 06:50:05;;;;;;;3.45;1.30;;;;;;;;;;6185201;23;19920;-76
2022/09/04 06:52:44;;;;;;;1.60;1.00;;;;;;;;;;6183825;23;20025;-77
2022/09/04 06:55:28;;;;;;;2.35;1.50;;;;;;;;;;6158890;23;20041;-77
2022/09/04 06:58:12;;;;;;;3.47;1.60;;;;;;;;;;6185297;23;20025;-77
2022/09/04 07:01:01;;;;;;;4.82;1.40;;;;;;;;;;6185999;23;20044;-77
2022/09/04 07:03:46;;;;;;;2.88;1.25;;;;;;;;;;6173790;23;20112;-78
2022/09/04 07:06:15;;;;;;;1.83;1.23;;;;;;;;;;6158523;23;20404;-78
2022/09/04 07:08:57;;;;;;;2.20;1.20;;;;;;;;;;6185903;23;20048;-79
2022/09/04 07:11:25;;;;;;;2.53;0.90;;;;;;;;;;6134062;23;20012;-78
2022/09/04 07:13:59;;;;;;;3.67;1.00;;;;;;;;;;6134346;23;20345;-78
2022/09/04 07:16:24;;;;;;;2.42;1.10;;;;;;;;;;6158551;23;20087;-78
2022/09/04 07:18:50;;;;;;;;;;;;;;;;;;6159191;23;20028;-77
2022/09/04 07:21:25;;;;;;;1.92;1.10;;;;;;;;;;6183746;23;19912;-76
2022/09/04 07:23:58;;;;;;;2.13;1.20;;;;;;;;;;6184422;23;20013;-77
2022/09/04 07:26:27;;;;;;;1.70;0.95;;;;;;;;;;6158401;23;20024;-77
2022/09/04 07:29:05;;;;;;;2.03;1.23;;;;;;;;;;6184412;23;20001;-77
2022/09/04 07:31:34;;;;;;;2.33;1.17;;;;;;;;;;6158477;23;20021;-77
2022/09/04 07:34:07;;;;;;;3.33;1.50;;;;;;;;;;6185046;23;19997;-77
2022/09/04 07:36:42;;;;;;;1.30;0.93;;;;;;;;;;6158736;23;20059;-77
2022/09/04 07:39:22;;;;;;;2.92;1.17;;;;;;;;;;6133839;23;20016;-77
2022/09/04 07:42:04;;;;;;;3.88;1.15;;;;;;;;;;6158369;23;20009;-77
2022/09/04 07:44:35;;;;;;;2.60;1.20;;;;;;;;;;6159127;23;20009;-77
2022/09/04 07:47:17;;;;;;;3.28;1.38;;;;;;;;;;6184299;23;20020;-77
2022/09/04 07:50:17;;;;;;;3.38;1.20;;;;;;;;;;6163647;23;20020;-77
2022/09/04 07:52:43;;;;;;;3.40;1.38;;;;;;;;;;6158943;23;20016;-77
2022/09/04 07:55:27;;;;;;;2.38;1.40;;;;;;;;;;6182530;23;20051;-78
2022/09/04 07:58:08;;;;;;;2.40;1.20;;;;;;;;;;6158557;23;20445;-79
2022/09/04 08:00:50;;;;;;;2.55;0.90;;;;;;;;;;6184998;23;20147;-79
2022/09/04 08:03:24;;;;;;;1.25;0.90;;;;;;;;;;6159283;23;20397;-78
2022/09/04 08:05:51;;;;;;;1.45;0.70;;;;;;;;;;6159181;23;20073;-79
2022/09/04 08:08:26;;;;;;;1.15;0.80;;;;;;;;;;6158879;23;20020;-78
2022/09/04 08:11:01;;;;;;;4.65;1.10;;;;;;;;;;6159455;23;20013;-78
2022/09/04 08:13:33;;;;;;;2.30;0.98;;;;;;;;;;6135483;23;20008;-79
2022/09/04 08:16:04;;;;;;;1.52;0.82;;;;;;;;;;6159217;23;20345;-80
2022/09/04 08:18:51;;;;;;;2.03;0.80;;;;;;;;;;6159030;23;20008;-79
2022/09/04 08:21:27;;;;;;;4.45;2.03;;;;;;;;;;6185214;23;20012;-79
2022/09/04 08:24:12;;;;;;;3.08;1.60;;;;;;;;;;6158462;23;20353;-79
2022/09/04 08:26:47;;;;;;;1.95;1.20;;;;;;;;;;6158684;23;20504;-78
2022/09/04 08:29:20;;;;;;;2.72;1.10;;;;;;;;;;6185461;23;20457;-79
2022/09/04 08:31:45;;;;;;;3.38;1.13;;;;;;;;;;6158853;23;20093;-79
2022/09/04 08:34:11;;;;;;;1.38;0.85;;;;;;;;;;6158665;23;20357;-78
2022/09/04 08:36:42;;;;;;;3.85;0.90;;;;;;;;;;6184942;23;20092;-78
2022/09/04 08:39:43;;;;;;;1.00;0.80;;;;;;;;;;6134469;23;20012;-78
2022/09/04 08:42:09;;;;;;;2.22;0.82;;;;;;;;;;6069804;23;20010;-78
2022/09/04 08:44:43;;;;;;;2.15;1.13;;;;;;;;;;6166225;23;20016;-78
2022/09/04 08:47:35;;;;;;;0.98;0.70;;;;;;;;;;6133912;23;20012;-78
2022/09/04 08:50:03;;;;;;;1.50;0.70;;;;;;;;;;6135146;23;20020;-78
2022/09/04 08:52:45;;;;;;;1.15;0.60;;;;;;;;;;6185072;23;19997;-78
2022/09/04 08:55:29;;;;;;;2.25;0.60;;;;;;;;;;6159064;23;20399;-79
2022/09/04 08:58:14;;;;;;;0.77;0.60;;;;;;;;;;6184656;23;20021;-79
2022/09/04 09:00:52;;;;;;;1.13;0.60;;;;;;;;;;6158840;23;20093;-78
2022/09/04 09:03:24;;;;;;;0.70;0.68;;;;;;;;;;6158764;23;20017;-78
2022/09/04 09:06:09;;;;;;;2.20;0.60;;;;;;;;;;6158815;23;20047;-79
2022/09/04 09:08:43;;;;;;;1.00;0.60;;;;;;;;;;6184951;23;20024;-78
2022/09/04 09:11:29;;;;;;;0.75;0.50;;;;;;;;;;6185895;23;20017;-79
2022/09/04 09:14:00;;;;;;;1.48;0.60;;;;;;;;;;6136279;23;20008;-79
2022/09/04 09:16:42;;;;;;;1.10;0.50;;;;;;;;;;6186816;23;20084;-79
2022/09/04 09:19:13;;;;;;;0.98;0.70;;;;;;;;;;6160432;23;20005;-79
2022/09/04 09:21:39;;;;;;;1.23;0.70;;;;;;;;;;6160652;23;20035;-78
2022/09/04 09:24:23;;;;;;;1.10;0.70;;;;;;;;;;6160252;23;19998;-78
2022/09/04 09:26:57;;;;;;;0.90;0.50;;;;;;;;;;6160655;23;20442;-79
2022/09/04 09:29:26;;;;;;;1.70;0.60;;;;;;;;;;6160708;23;20376;-79
2022/09/04 09:31:51;;;;;;;1.15;0.50;;;;;;;;;;6160224;23;20001;-79
2022/09/04 09:34:36;;;;;;;2.80;0.85;;;;;;;;;;6186455;23;20459;-79
2022/09/04 09:37:18;;;;;;;3.10;0.70;;;;;;;;;;6186339;23;20376;-79
2022/09/04 09:39:46;;;;;;;3.30;1.00;;;;;;;;;;6160540;23;20483;-79
2022/09/04 09:42:15;;;;;;;1.35;0.90;;;;;;;;;;6186397;23;20005;-77
2022/09/04 09:44:44;;;;;;;1.20;0.60;;;;;;;;;;6184953;23;20036;-77
2022/09/04 09:47:25;;;;;;;2.63;0.68;;;;;;;;;;6160526;23;20001;-78
2022/09/04 09:49:56;;;;;;;2.30;0.80;;;;;;;;;;6186330;23;20067;-77
2022/09/04 09:52:31;;;;;;;1.65;0.90;;;;;;;;;;6186745;23;20044;-78
2022/09/04 09:55:03;;;;;;;2.28;0.80;;;;;;;;;;6186663;23;20041;-78
2022/09/04 09:57:43;;;;;;;1.15;0.60;;;;;;;;;;6186071;23;20024;-78
2022/09/04 10:00:16;;;;;;;0.88;0.68;;;;;;;;;;6159870;23;20017;-78
2022/09/04 10:02:54;;;;;;;1.55;0.70;;;;;;;;;;6160015;23;20020;-77
2022/09/04 10:05:38;;;;;;;1.90;0.70;;;;;;;;;;6186160;23;20016;-79
2022/09/04 10:08:22;;;;;;;1.17;0.70;;;;;;;;;;6185973;23;20028;-79
2022/09/04 10:11:06;;;;;;;1.77;0.63;;;;;;;;;;6186379;23;20013;-78
2022/09/04 10:13:32;;;;;;;1.73;0.77;;;;;;;;;;6185990;23;20021;-79
2022/09/04 10:16:17;;;;;;;1.50;0.68;;;;;;;;;;6185880;23;20078;-78
2022/09/04 10:18:57;;;;;;;4.00;1.08;;;;;;;;;;6186071;23;20020;-78
2022/09/04 10:21:31;;;;;;;2.97;1.00;;;;;;;;;;6135354;23;20031;-78
2022/09/04 10:24:04;;;;;;;1.55;0.80;;;;;;;;;;6160236;23;20476;-79
2022/09/04 10:26:48;;;;;;;1.13;0.73;;;;;;;;;;6159955;23;20017;-78
2022/09/04 10:29:32;;;;;;;1.30;0.85;;;;;;;;;;6186189;23;20013;-78
2022/09/04 10:32:31;;;;;;;1.48;0.77;;;;;;;;;;6159994;23;20382;-80
2022/09/04 10:35:15;;;;;;;3.55;1.10;;;;;;;;;;6137687;23;20045;-80
2022/09/04 10:37:47;;;;;;;1.67;1.00;;;;;;;;;;6160437;23;20009;-81
2022/09/04 10:40:36;;;;;;;2.30;0.95;;;;;;;;;;6186291;23;20013;-79
2022/09/04 10:43:11;;;;;;;2.22;1.10;;;;;;;;;;6162069;23;20491;-78
2022/09/04 10:45:40;;;;;;;1.52;1.10;;;;;;;;;;6185833;23;20411;-79
2022/09/04 10:48:11;;;;;;;2.47;1.05;;;;;;;;;;6160843;23;20000;-79
2022/09/04 10:50:37;;;;;;;1.88;0.90;;;;;;;;;;6185913;23;20445;-78
2022/09/04 10:53:12;;;;;;;3.05;0.70;;;;;;;;;;6184670;23;20024;-79
2022/09/04 10:55:57;;;;;;;1.52;0.70;;;;;;;;;;6159458;23;20009;-80
2022/09/04 10:58:23;;;;;;;2.47;0.73;;;;;;;;;;6139959;23;20369;-79
2022/09/04 11:01:02;;;;;;;2.20;1.05;;;;;;;;;;6159279;23;20052;-79
2022/09/04 11:03:43;;;;;;;2.40;1.00;;;;;;;;;;6160463;23;20071;-81
2022/09/04 11:06:14;;;;;;;3.17;1.00;;;;;;;;;;6186586;23;20012;-77
2022/09/04 11:09:19;;;;;;;1.92;0.90;;;;;;;;;;6159977;23;20013;-78
2022/09/04 11:11:57;;;;;;;2.88;1.38;;;;;;;;;;6095853;23;20025;-79
2022/09/04 11:14:30;;;;;;;1.85;1.30;;;;;;;;;;6095213;23;20064;-78
2022/09/04 11:17:11;;;;;;;1.70;1.10;;;;;;;;;;6124250;23;20020;-78
2022/09/04 11:19:45;;;;;;;4.70;1.27;;;;;;;;;;6185277;23;20016;-78
2022/09/04 11:22:20;;;;;;;1.83;1.13;;;;;;;;;;6159831;23;20147;-79
2022/09/04 11:25:09;;;;;;;4.00;1.10;;;;;;;;;;6159320;23;20009;-78
2022/09/04 11:27:44;;;;;;;2.50;1.05;;;;;;;;;;6117959;23;20015;-80
2022/09/04 11:30:10;;;;;;;1.48;0.85;;;;;;;;;;6159529;23;20013;-76
2022/09/04 11:32:36;;;;;;;3.08;0.80;;;;;;;;;;6183944;23;20001;-76
2022/09/04 11:35:08;;;;;;;1.52;0.80;;;;;;;;;;6159042;23;20352;-80
2022/09/04 11:37:43;;;;;;;3.67;1.10;;;;;;;;;;6134550;23;20009;-79
2022/09/04 11:40:12;;;;;;;2.53;1.10;;;;;;;;;;6159348;23;20095;-79
2022/09/04 11:42:56;;;;;;;3.10;1.20;;;;;;;;;;6159071;23;20008;-80
2022/09/04 11:45:41;;;;;;;3.08;1.50;;;;;;;;;;6185251;23;20012;-78
2022/09/04 11:48:11;;;;;;;3.65;1.73;;;;;;;;;;6158926;23;20096;-81
2022/09/04 11:51:15;;;;;;;3.38;1.70;;;;;;;;;;6164590;23;20483;-78
2022/09/04 11:53:46;;;;;;;2.33;1.33;;;;;;;;;;6185061;23;20082;-78
2022/09/04 11:56:14;;;;;;;1.80;0.63;;;;;;;;;;6134705;23;20067;-79
2022/09/04 11:58:59;;;;;;;1.80;0.60;;;;;;;;;;6183784;23;20017;-78
2022/09/04 12:01:33;;;;;;;1.30;0.70;;;;;;;;;;6159228;23;20064;-79
2022/09/04 12:03:58;;;;;;;3.83;0.70;;;;;;;;;;6159670;23;20357;-77
2022/09/04 12:06:43;;;;;;;1.40;0.70;;;;;;;;;;6159571;23;20001;-78
2022/09/04 12:09:27;;;;;;;1.80;0.75;;;;;;;;;;6159341;23;20433;-78
2022/09/04 12:12:11;;;;;;;3.22;1.15;;;;;;;;;;6185316;23;20099;-78
2022/09/04 12:14:36;;;;;;;4.55;1.38;;;;;;;;;;6159171;23;20008;-77
2022/09/04 12:17:02;;;;;;;2.58;1.27;;;;;;;;;;6158989;23;19997;-78
2022/09/04 12:19:38;;;;;;;2.50;1.10;;;;;;;;;;6158938;23;20017;-79
2022/09/04 12:22:23;;;;;;;2.33;1.20;;;;;;;;;;6159775;23;20042;-79
2022/09/04 12:24:52;;;;;;;3.03;0.82;;;;;;;;;;6185110;23;20017;-79
2022/09/04 12:27:38;;;;;;;4.05;1.45;;;;;;;;;;6185168;23;20029;-79
2022/09/04 12:30:09;;;;;;;4.10;1.20;;;;;;;;;;6158919;23;20027;-78
2022/09/04 12:32:53;;;;;;;3.63;1.08;;;;;;;;;;6159577;23;20063;-79
2022/09/04 12:35:38;;;;;;;1.55;0.90;;;;;;;;;;6185829;23;20008;-78
2022/09/04 12:38:33;;;;;;;2.72;0.70;;;;;;;;;;6159007;23;20453;-77
2022/09/04 12:41:07;;;;;;;1.02;0.65;;;;;;;;;;6105556;23;20014;-79
2022/09/04 12:43:33;;;;;;;2.53;0.70;;;;;;;;;;6184982;23;20005;-78
2022/09/04 12:46:14;;;;;;;3.10;0.90;;;;;;;;;;6158407;23;20012;-78
2022/09/04 12:48:58;;;;;;;1.83;0.85;;;;;;;;;;6134107;23;20490;-79
2022/09/04 12:51:25;;;;;;;1.85;1.00;;;;;;;;;;6184954;23;20056;-79
2022/09/04 12:54:26;;;;;;;1.55;0.80;;;;;;;;;;6159118;23;20489;-79
2022/09/04 12:56:51;;;;;;;1.48;0.98;;;;;;;;;;6069469;23;20022;-77
2022/09/04 12:59:35;;;;;;;1.92;0.93;;;;;;;;;;6166297;23;20097;-79
2022/09/04 13:02:08;;;;;;;1.75;1.10;;;;;;;;;;6185506;23;20013;-79
2022/09/04 13:04:34;;;;;;;2.78;1.00;;;;;;;;;;6159200;23;20493;-79
2022/09/04 13:07:15;;;;;;;1.63;1.00;;;;;;;;;;6183351;23;20032;-78
2022/09/04 13:09:59;;;;;;;3.65;1.40;;;;;;;;;;6158562;23;20413;-78
2022/09/04 13:12:43;;;;;;;1.85;0.88;;;;;;;;;;6184911;23;20066;-78
2022/09/04 13:15:09;;;;;;;1.63;0.88;;;;;;;;;;6158584;23;20104;-78
2022/09/04 13:17:42;;;;;;;1.45;0.88;;;;;;;;;;6185337;23;20467;-78
2022/09/04 13:20:13;;;;;;;1.27;0.70;;;;;;;;;;6158339;23;20017;-79
2022/09/04 13:22:52;;;;;;;3.55;0.80;;;;;;;;;;6185076;23;20005;-79
2022/09/04 13:25:26;;;;;;;4.45;0.90;;;;;;;;;;6158362;23;20031;-79
2022/09/04 13:28:10;;;;;;;5.38;0.77;;;;;;;;;;6158842;23;20021;-78
2022/09/04 13:30:39;;;;;;;1.70;0.85;;;;;;;;;;6134634;23;20087;-79
2022/09/04 13:33:40;;;;;;;1.63;0.80;;;;;;;;;;6159317;23;20001;-82
2022/09/04 13:36:06;;;;;;;1.92;0.98;;;;;;;;;;6046069;23;20042;-82
2022/09/04 13:38:34;;;;;;;1.90;0.90;;;;;;;;;;6140158;23;20437;-79
2022/09/04 13:41:08;;;;;;;2.95;0.93;;;;;;;;;;6158478;23;20009;-79
2022/09/04 13:43:53;;;;;;;2.83;0.85;;;;;;;;;;6158510;23;20345;-79
2022/09/04 13:46:20;;;;;;;1.48;0.80;;;;;;;;;;6158198;23;20020;-81
2022/09/04 13:48:46;;;;;;;3.17;0.60;;;;;;;;;;6184834;23;20027;-78
2022/09/04 13:51:11;;;;;;;2.63;0.90;;;;;;;;;;6185371;23;20017;-78
2022/09/04 13:53:43;;;;;;;1.58;0.80;;;;;;;;;;6158515;23;20381;-79
2022/09/04 13:56:10;;;;;;;1.65;0.88;;;;;;;;;;6185215;23;20031;-79
2022/09/04 13:58:39;;;;;;;2.22;0.75;;;;;;;;;;6160059;23;20472;-79
2022/09/04 14:01:07;;;;;;;5.57;0.80;;;;;;;;;;6160639;23;20013;-78
2022/09/04 14:03:34;;;;;;;2.05;0.70;;;;;;;;;;6160360;23;20079;-78
2022/09/04 14:06:00;;;;;;;2.72;1.02;;;;;;;;;;6160613;23;20468;-78
2022/09/04 14:08:29;;;;;;;2.05;0.80;;;;;;;;;;6160093;23;20008;-79
2022/09/04 14:10:58;;;;;;;2.15;0.95;;;;;;;;;;6160925;23;20041;-78
2022/09/04 14:13:31;;;;;;;4.40;1.10;;;;;;;;;;6184930;23;20675;-77
2022/09/04 14:16:02;;;;;;;3.83;1.17;;;;;;;;;;6159941;23;20041;-80
2022/09/04 14:18:38;;;;;;;2.55;1.00;;;;;;;;;;6160122;23;20409;-77
2022/09/04 14:21:24;;;;;;;2.45;1.08;;;;;;;;;;6160370;23;20020;-77
2022/09/04 14:24:08;;;;;;;2.28;0.70;;;;;;;;;;6185797;23;20013;-79
2022/09/04 14:26:35;;;;;;;1.35;0.70;;;;;;;;;;6186411;23;20444;-79
2022/09/04 14:29:06;;;;;;;3.58;0.80;;;;;;;;;;6160098;23;20011;-78
2022/09/04 14:31:35;;;;;;;2.67;1.10;;;;;;;;;;6186604;23;20017;-79
2022/09/04 14:34:12;;;;;;;2.83;1.10;;;;;;;;;;6135870;23;20643;-79
2022/09/04 14:36:55;;;;;;;2.22;1.00;;;;;;;;;;6160062;23;20091;-79
2022/09/04 14:39:23;;;;;;;1.70;1.00;;;;;;;;;;6186356;23;20009;-78
2022/09/04 14:42:08;;;;;;;1.25;0.70;;;;;;;;;;6135078;23;20008;-77
2022/09/04 14:44:53;;;;;;;3.42;1.05;;;;;;;;;;6159655;23;20009;-79
2022/09/04 14:47:26;;;;;;;1.23;0.73;;;;;;;;;;6159610;23;20092;-78
2022/09/04 14:49:54;;;;;;;1.48;0.88;;;;;;;;;;6134961;23;20020;-79
2022/09/04 14:52:26;;;;;;;2.63;1.00;;;;;;;;;;6186463;23;20425;-78
2022/09/04 14:54:52;;;;;;;1.77;1.10;;;;;;;;;;6159268;23;20032;-79
2022/09/04 14:57:20;;;;;;;2.70;0.98;;;;;;;;;;6158673;23;20051;-79
2022/09/04 14:59:50;;;;;;;2.45;0.80;;;;;;;;;;6185677;23;20084;-77
2022/09/04 15:02:23;;;;;;;2.10;1.00;;;;;;;;;;6159462;23;20000;-78
2022/09/04 15:05:04;;;;;;;3.88;1.10;;;;;;;;;;6158840;23;20020;-76
2022/09/04 15:07:41;;;;;;;2.30;1.25;;;;;;;;;;6134787;23;20044;-79
2022/09/04 15:10:27;;;;;;;2.88;1.08;;;;;;;;;;6158487;23;20056;-78
2022/09/04 15:13:05;;;;;;;2.17;1.35;;;;;;;;;;6184469;23;20087;-78
2022/09/04 15:15:31;;;;;;;3.30;1.15;;;;;;;;;;6185052;23;20136;-78
2022/09/04 15:18:00;;;;;;;4.10;1.70;;;;;;;;;;6134551;23;20306;-78
2022/09/04 15:20:27;;;;;;;4.13;1.40;;;;;;;;;;6159430;23;20009;-76
2022/09/04 15:22:52;;;;;;;2.83;1.60;;;;;;;;;;6159187;23;20039;-79
2022/09/04 15:25:18;;;;;;;2.92;1.67;;;;;;;;;;6158962;23;20016;-77
2022/09/04 15:27:46;;;;;;;4.53;1.55;;;;;;;;;;6185207;23;20009;-79
2022/09/04 15:30:19;;;;;;;3.00;1.80;;;;;;;;;;6185306;23;20028;-79
2022/09/04 15:32:44;;;;;;;5.28;2.08;;;;;;;;;;6159182;23;20009;-78
2022/09/04 15:35:13;;;;;;;5.45;2.15;;;;;;;;;;6134429;23;20001;-78